sensor_id;sensor_type;location;lat;lon;timestamp;temperature;humidity
38726;DHT22;24474;48.906;8.808;2024-01-30T00:01:44;3.80;99.90
38726;DHT22;24474;48.906;8.808;2024-01-30T00:04:10;3.80;99.90
38726;DHT22;24474;48.906;8.808;2024-01-30T00:06:36;3.80;99.90
38726;DHT22;24474;48.906;8.808;2024-01-30T00:09:01;3.80;99.90
38726;DHT22;24474;48.906;8.808;2024-01-30T00:11:27;3.80;99.90
38726;DHT22;24474;48.906;8.808;2024-01-30T00:13:54;3.80;99.90
38726;DHT22;24474;48.906;8.808;2024-01-30T00:16:23;3.80;99.90
38726;DHT22;24474;48.906;8.808;2024-01-30T00:18:53;3.70;99.90
38726;DHT22;24474;48.906;8.808;2024-01-30T00:21:20;3.70;99.90
38726;DHT22;24474;48.906;8.808;2024-01-30T00:23:46;3.70;99.90
38726;DHT22;24474;48.906;8.808;2024-01-30T00:26:11;3.60;99.90
38726;DHT22;24474;48.906;8.808;2024-01-30T00:28:41;3.60;99.90
38726;DHT22;24474;48.906;8.808;2024-01-30T00:31:07;3.60;99.90
38726;DHT22;24474;48.906;8.808;2024-01-30T00:33:33;3.60;99.90
38726;DHT22;24474;48.906;8.808;2024-01-30T00:35:59;3.60;99.90
38726;DHT22;24474;48.906;8.808;2024-01-30T00:38:24;3.60;99.90
38726;DHT22;24474;48.906;8.808;2024-01-30T00:40:50;3.60;99.90
38726;DHT22;24474;48.906;8.808;2024-01-30T00:43:16;3.50;99.90
38726;DHT22;24474;48.906;8.808;2024-01-30T00:45:43;3.50;99.90
38726;DHT22;24474;48.906;8.808;2024-01-30T00:48:09;3.50;99.90
38726;DHT22;24474;48.906;8.808;2024-01-30T00:50:35;3.50;99.90
38726;DHT22;24474;48.906;8.808;2024-01-30T00:53:00;3.50;99.90
38726;DHT22;24474;48.906;8.808;2024-01-30T00:55:26;3.50;99.90
38726;DHT22;24474;48.906;8.808;2024-01-30T00:57:51;3.50;99.90
38726;DHT22;24474;48.906;8.808;2024-01-30T01:00:17;3.50;99.90
38726;DHT22;24474;48.906;8.808;2024-01-30T01:02:43;3.40;99.90
38726;DHT22;24474;48.906;8.808;2024-01-30T01:05:09;3.40;99.90
38726;DHT22;24474;48.906;8.808;2024-01-30T01:07:36;3.40;99.90
38726;DHT22;24474;48.906;8.808;2024-01-30T01:10:01;3.40;99.90
38726;DHT22;24474;48.906;8.808;2024-01-30T01:12:28;3.30;99.90
38726;DHT22;24474;48.906;8.808;2024-01-30T01:14:53;3.30;99.90
38726;DHT22;24474;48.906;8.808;2024-01-30T01:17:19;3.30;99.90
38726;DHT22;24474;48.906;8.808;2024-01-30T01:19:45;3.30;99.90
38726;DHT22;24474;48.906;8.808;2024-01-30T01:22:11;3.30;99.90
38726;DHT22;24474;48.906;8.808;2024-01-30T01:24:36;3.20;99.90
38726;DHT22;24474;48.906;8.808;2024-01-30T01:27:02;3.20;99.90
38726;DHT22;24474;48.906;8.808;2024-01-30T01:29:28;3.20;99.90
38726;DHT22;24474;48.906;8.808;2024-01-30T01:31:58;3.20;99.90
38726;DHT22;24474;48.906;8.808;2024-01-30T01:34:23;3.10;99.90
38726;DHT22;24474;48.906;8.808;2024-01-30T01:36:50;3.10;99.90
38726;DHT22;24474;48.906;8.808;2024-01-30T01:39:16;3.10;99.90
38726;DHT22;24474;48.906;8.808;2024-01-30T01:41:42;3.10;99.90
38726;DHT22;24474;48.906;8.808;2024-01-30T01:44:08;3.10;99.90
38726;DHT22;24474;48.906;8.808;2024-01-30T01:46:34;3.10;99.90
38726;DHT22;24474;48.906;8.808;2024-01-30T01:49:04;3.10;99.90
38726;DHT22;24474;48.906;8.808;2024-01-30T01:51:32;3.00;99.90
38726;DHT22;24474;48.906;8.808;2024-01-30T01:54:00;3.00;99.90
38726;DHT22;24474;48.906;8.808;2024-01-30T01:56:29;3.00;99.90
38726;DHT22;24474;48.906;8.808;2024-01-30T01:58:55;3.00;99.90
38726;DHT22;24474;48.906;8.808;2024-01-30T02:01:21;2.90;99.90
38726;DHT22;24474;48.906;8.808;2024-01-30T02:03:47;2.90;99.90
38726;DHT22;24474;48.906;8.808;2024-01-30T02:06:14;2.90;99.90
38726;DHT22;24474;48.906;8.808;2024-01-30T02:08:41;2.80;99.90
38726;DHT22;24474;48.906;8.808;2024-01-30T02:11:07;2.90;99.90
38726;DHT22;24474;48.906;8.808;2024-01-30T02:13:32;2.80;99.90
38726;DHT22;24474;48.906;8.808;2024-01-30T02:15:58;2.80;99.90
38726;DHT22;24474;48.906;8.808;2024-01-30T02:18:23;2.80;99.90
38726;DHT22;24474;48.906;8.808;2024-01-30T02:20:52;2.80;99.90
38726;DHT22;24474;48.906;8.808;2024-01-30T02:23:19;2.70;99.90
38726;DHT22;24474;48.906;8.808;2024-01-30T02:25:45;2.70;99.90
38726;DHT22;24474;48.906;8.808;2024-01-30T02:28:14;2.70;99.90
38726;DHT22;24474;48.906;8.808;2024-01-30T02:30:43;2.70;99.90
38726;DHT22;24474;48.906;8.808;2024-01-30T02:33:08;2.70;99.90
38726;DHT22;24474;48.906;8.808;2024-01-30T02:35:34;2.70;99.90
38726;DHT22;24474;48.906;8.808;2024-01-30T02:38:01;2.70;99.90
38726;DHT22;24474;48.906;8.808;2024-01-30T02:40:26;2.70;99.90
38726;DHT22;24474;48.906;8.808;2024-01-30T02:42:52;2.70;99.90
38726;DHT22;24474;48.906;8.808;2024-01-30T02:45:18;2.60;99.90
38726;DHT22;24474;48.906;8.808;2024-01-30T02:47:44;2.60;99.90
38726;DHT22;24474;48.906;8.808;2024-01-30T02:50:10;2.60;99.90
38726;DHT22;24474;48.906;8.808;2024-01-30T02:52:35;2.60;99.90
38726;DHT22;24474;48.906;8.808;2024-01-30T02:55:01;2.60;99.90
38726;DHT22;24474;48.906;8.808;2024-01-30T02:57:28;2.60;99.90
38726;DHT22;24474;48.906;8.808;2024-01-30T02:59:54;2.70;99.90
38726;DHT22;24474;48.906;8.808;2024-01-30T03:02:19;2.70;99.90
38726;DHT22;24474;48.906;8.808;2024-01-30T03:04:45;2.70;99.90
38726;DHT22;24474;48.906;8.808;2024-01-30T03:07:11;2.70;99.90
38726;DHT22;24474;48.906;8.808;2024-01-30T03:09:37;2.70;99.90
38726;DHT22;24474;48.906;8.808;2024-01-30T03:12:03;2.70;99.90
38726;DHT22;24474;48.906;8.808;2024-01-30T03:14:31;2.70;99.90
38726;DHT22;24474;48.906;8.808;2024-01-30T03:16:57;2.70;99.90
38726;DHT22;24474;48.906;8.808;2024-01-30T03:19:23;2.70;99.90
38726;DHT22;24474;48.906;8.808;2024-01-30T03:21:49;2.70;99.90
38726;DHT22;24474;48.906;8.808;2024-01-30T03:24:15;2.70;99.90
38726;DHT22;24474;48.906;8.808;2024-01-30T03:26:40;2.70;99.90
38726;DHT22;24474;48.906;8.808;2024-01-30T03:29:06;2.70;99.90
38726;DHT22;24474;48.906;8.808;2024-01-30T03:31:31;2.60;99.90
38726;DHT22;24474;48.906;8.808;2024-01-30T03:33:57;2.60;99.90
38726;DHT22;24474;48.906;8.808;2024-01-30T03:36:23;2.60;99.90
38726;DHT22;24474;48.906;8.808;2024-01-30T03:38:49;2.60;99.90
38726;DHT22;24474;48.906;8.808;2024-01-30T03:41:15;2.60;99.90
38726;DHT22;24474;48.906;8.808;2024-01-30T03:43:40;2.60;99.90
38726;DHT22;24474;48.906;8.808;2024-01-30T03:46:06;2.60;99.90
38726;DHT22;24474;48.906;8.808;2024-01-30T03:48:32;2.60;99.90
38726;DHT22;24474;48.906;8.808;2024-01-30T03:50:58;2.60;99.90
38726;DHT22;24474;48.906;8.808;2024-01-30T03:53:23;2.60;99.90
38726;DHT22;24474;48.906;8.808;2024-01-30T03:55:49;2.60;99.90
38726;DHT22;24474;48.906;8.808;2024-01-30T03:58:15;2.60;99.90
38726;DHT22;24474;48.906;8.808;2024-01-30T04:00:40;2.60;99.90
38726;DHT22;24474;48.906;8.808;2024-01-30T04:03:06;2.60;99.90
38726;DHT22;24474;48.906;8.808;2024-01-30T04:05:33;2.60;99.90
38726;DHT22;24474;48.906;8.808;2024-01-30T04:08:00;2.60;99.90
38726;DHT22;24474;48.906;8.808;2024-01-30T04:10:26;2.50;99.90
38726;DHT22;24474;48.906;8.808;2024-01-30T04:12:51;2.50;99.90
38726;DHT22;24474;48.906;8.808;2024-01-30T04:15:17;2.50;99.90
38726;DHT22;24474;48.906;8.808;2024-01-30T04:17:43;2.60;99.90
38726;DHT22;24474;48.906;8.808;2024-01-30T04:20:14;2.50;99.90
38726;DHT22;24474;48.906;8.808;2024-01-30T04:22:44;2.50;99.90
38726;DHT22;24474;48.906;8.808;2024-01-30T04:25:10;2.50;99.90
38726;DHT22;24474;48.906;8.808;2024-01-30T04:27:36;2.50;99.90
38726;DHT22;24474;48.906;8.808;2024-01-30T04:30:02;2.40;99.90
38726;DHT22;24474;48.906;8.808;2024-01-30T04:32:27;2.40;99.90
38726;DHT22;24474;48.906;8.808;2024-01-30T04:34:53;2.40;99.90
38726;DHT22;24474;48.906;8.808;2024-01-30T04:37:18;2.40;99.90
38726;DHT22;24474;48.906;8.808;2024-01-30T04:39:44;2.30;99.90
38726;DHT22;24474;48.906;8.808;2024-01-30T04:42:10;2.30;99.90
38726;DHT22;24474;48.906;8.808;2024-01-30T04:44:35;2.30;99.90
38726;DHT22;24474;48.906;8.808;2024-01-30T04:47:01;2.30;99.90
38726;DHT22;24474;48.906;8.808;2024-01-30T04:49:27;2.20;99.90
38726;DHT22;24474;48.906;8.808;2024-01-30T04:51:54;2.30;99.90
38726;DHT22;24474;48.906;8.808;2024-01-30T04:54:21;2.20;99.90
38726;DHT22;24474;48.906;8.808;2024-01-30T04:56:46;2.20;99.90
38726;DHT22;24474;48.906;8.808;2024-01-30T04:59:12;2.20;99.90
38726;DHT22;24474;48.906;8.808;2024-01-30T05:01:37;2.20;99.90
38726;DHT22;24474;48.906;8.808;2024-01-30T05:04:03;2.20;99.90
38726;DHT22;24474;48.906;8.808;2024-01-30T05:06:29;2.20;99.90
38726;DHT22;24474;48.906;8.808;2024-01-30T05:08:55;2.10;99.90
38726;DHT22;24474;48.906;8.808;2024-01-30T05:11:21;2.10;99.90
38726;DHT22;24474;48.906;8.808;2024-01-30T05:13:46;2.10;99.90
38726;DHT22;24474;48.906;8.808;2024-01-30T05:16:13;2.10;99.90
38726;DHT22;24474;48.906;8.808;2024-01-30T05:18:38;2.10;99.90
38726;DHT22;24474;48.906;8.808;2024-01-30T05:21:05;2.10;99.90
38726;DHT22;24474;48.906;8.808;2024-01-30T05:23:31;2.10;99.90
38726;DHT22;24474;48.906;8.808;2024-01-30T05:25:56;2.10;99.90
38726;DHT22;24474;48.906;8.808;2024-01-30T05:28:22;2.00;99.90
38726;DHT22;24474;48.906;8.808;2024-01-30T05:30:48;2.00;99.90
38726;DHT22;24474;48.906;8.808;2024-01-30T05:33:13;2.00;99.90
38726;DHT22;24474;48.906;8.808;2024-01-30T05:35:39;2.00;99.90
38726;DHT22;24474;48.906;8.808;2024-01-30T05:38:05;2.00;99.90
38726;DHT22;24474;48.906;8.808;2024-01-30T05:40:30;2.00;99.90
38726;DHT22;24474;48.906;8.808;2024-01-30T05:42:56;2.00;99.90
38726;DHT22;24474;48.906;8.808;2024-01-30T05:45:26;2.00;99.90
38726;DHT22;24474;48.906;8.808;2024-01-30T05:47:52;1.90;99.90
38726;DHT22;24474;48.906;8.808;2024-01-30T05:50:19;1.90;99.90
38726;DHT22;24474;48.906;8.808;2024-01-30T05:52:44;1.90;99.90
38726;DHT22;24474;48.906;8.808;2024-01-30T05:55:11;1.90;99.90
38726;DHT22;24474;48.906;8.808;2024-01-30T05:57:37;1.90;99.90
38726;DHT22;24474;48.906;8.808;2024-01-30T06:00:06;1.90;99.90
38726;DHT22;24474;48.906;8.808;2024-01-30T06:02:32;1.90;99.90
38726;DHT22;24474;48.906;8.808;2024-01-30T06:05:01;1.90;99.90
38726;DHT22;24474;48.906;8.808;2024-01-30T06:07:27;1.90;99.90
38726;DHT22;24474;48.906;8.808;2024-01-30T06:09:52;1.80;99.90
38726;DHT22;24474;48.906;8.808;2024-01-30T06:12:18;1.80;99.90
38726;DHT22;24474;48.906;8.808;2024-01-30T06:14:46;1.80;99.90
38726;DHT22;24474;48.906;8.808;2024-01-30T06:17:12;1.80;99.90
38726;DHT22;24474;48.906;8.808;2024-01-30T06:19:38;1.80;99.90
38726;DHT22;24474;48.906;8.808;2024-01-30T06:22:04;1.80;99.90
38726;DHT22;24474;48.906;8.808;2024-01-30T06:24:30;1.80;99.90
38726;DHT22;24474;48.906;8.808;2024-01-30T06:26:58;1.80;99.90
38726;DHT22;24474;48.906;8.808;2024-01-30T06:29:24;1.70;99.90
38726;DHT22;24474;48.906;8.808;2024-01-30T06:31:52;1.70;99.90
38726;DHT22;24474;48.906;8.808;2024-01-30T06:34:17;1.70;99.90
38726;DHT22;24474;48.906;8.808;2024-01-30T06:36:43;1.70;99.90
38726;DHT22;24474;48.906;8.808;2024-01-30T06:39:09;1.70;99.90
38726;DHT22;24474;48.906;8.808;2024-01-30T06:41:34;1.70;99.90
38726;DHT22;24474;48.906;8.808;2024-01-30T06:44:02;1.70;99.90
38726;DHT22;24474;48.906;8.808;2024-01-30T06:46:28;1.70;99.90
38726;DHT22;24474;48.906;8.808;2024-01-30T06:48:53;1.70;99.90
38726;DHT22;24474;48.906;8.808;2024-01-30T06:51:19;1.80;99.90
38726;DHT22;24474;48.906;8.808;2024-01-30T06:53:45;1.80;99.90
38726;DHT22;24474;48.906;8.808;2024-01-30T06:56:10;1.80;99.90
38726;DHT22;24474;48.906;8.808;2024-01-30T06:58:36;1.80;99.90
38726;DHT22;24474;48.906;8.808;2024-01-30T07:01:02;1.80;99.90
38726;DHT22;24474;48.906;8.808;2024-01-30T07:03:27;1.80;99.90
38726;DHT22;24474;48.906;8.808;2024-01-30T07:05:53;1.80;99.90
38726;DHT22;24474;48.906;8.808;2024-01-30T07:08:19;1.80;99.90
38726;DHT22;24474;48.906;8.808;2024-01-30T07:10:45;1.80;99.90
38726;DHT22;24474;48.906;8.808;2024-01-30T07:13:13;1.80;99.90
38726;DHT22;24474;48.906;8.808;2024-01-30T07:15:42;1.80;99.90
38726;DHT22;24474;48.906;8.808;2024-01-30T07:18:07;1.90;99.90
38726;DHT22;24474;48.906;8.808;2024-01-30T07:20:33;1.80;99.90
38726;DHT22;24474;48.906;8.808;2024-01-30T07:22:59;1.80;99.90
38726;DHT22;24474;48.906;8.808;2024-01-30T07:25:24;1.80;99.90
38726;DHT22;24474;48.906;8.808;2024-01-30T07:27:54;1.80;99.90
38726;DHT22;24474;48.906;8.808;2024-01-30T07:30:20;1.80;99.90
38726;DHT22;24474;48.906;8.808;2024-01-30T07:32:46;1.80;99.90
38726;DHT22;24474;48.906;8.808;2024-01-30T07:35:13;1.80;99.90
38726;DHT22;24474;48.906;8.808;2024-01-30T07:37:39;1.80;99.90
38726;DHT22;24474;48.906;8.808;2024-01-30T07:40:05;1.80;99.90
38726;DHT22;24474;48.906;8.808;2024-01-30T07:42:32;1.80;99.90
38726;DHT22;24474;48.906;8.808;2024-01-30T07:44:58;1.80;99.90
38726;DHT22;24474;48.906;8.808;2024-01-30T07:47:23;1.80;99.90
38726;DHT22;24474;48.906;8.808;2024-01-30T07:49:50;1.80;99.90
38726;DHT22;24474;48.906;8.808;2024-01-30T07:52:18;1.80;99.90
38726;DHT22;24474;48.906;8.808;2024-01-30T07:54:44;1.80;99.90
38726;DHT22;24474;48.906;8.808;2024-01-30T07:57:12;1.90;99.90
38726;DHT22;24474;48.906;8.808;2024-01-30T07:59:38;1.90;99.90
38726;DHT22;24474;48.906;8.808;2024-01-30T08:02:03;2.00;99.90
38726;DHT22;24474;48.906;8.808;2024-01-30T08:04:29;2.00;99.90
38726;DHT22;24474;48.906;8.808;2024-01-30T08:06:59;2.00;99.90
38726;DHT22;24474;48.906;8.808;2024-01-30T08:09:24;2.00;99.90
38726;DHT22;24474;48.906;8.808;2024-01-30T08:11:50;2.00;99.90
38726;DHT22;24474;48.906;8.808;2024-01-30T08:14:17;2.00;99.90
38726;DHT22;24474;48.906;8.808;2024-01-30T08:16:42;2.00;99.90
38726;DHT22;24474;48.906;8.808;2024-01-30T08:19:08;2.00;99.90
38726;DHT22;24474;48.906;8.808;2024-01-30T08:21:38;2.10;99.90
38726;DHT22;24474;48.906;8.808;2024-01-30T08:24:06;2.10;99.90
38726;DHT22;24474;48.906;8.808;2024-01-30T08:26:32;2.20;99.90
38726;DHT22;24474;48.906;8.808;2024-01-30T08:28:58;2.20;99.90
38726;DHT22;24474;48.906;8.808;2024-01-30T08:31:24;2.30;99.90
38726;DHT22;24474;48.906;8.808;2024-01-30T08:33:51;2.30;99.90
38726;DHT22;24474;48.906;8.808;2024-01-30T08:36:17;2.30;99.90
38726;DHT22;24474;48.906;8.808;2024-01-30T08:38:43;2.40;99.90
38726;DHT22;24474;48.906;8.808;2024-01-30T08:41:09;2.40;99.90
38726;DHT22;24474;48.906;8.808;2024-01-30T08:43:35;2.40;99.90
38726;DHT22;24474;48.906;8.808;2024-01-30T08:46:03;2.40;99.90
38726;DHT22;24474;48.906;8.808;2024-01-30T08:48:29;2.50;99.90
38726;DHT22;24474;48.906;8.808;2024-01-30T08:50:55;2.50;99.90
38726;DHT22;24474;48.906;8.808;2024-01-30T08:53:20;2.50;99.90
38726;DHT22;24474;48.906;8.808;2024-01-30T08:55:46;2.60;99.90
38726;DHT22;24474;48.906;8.808;2024-01-30T08:58:12;2.70;99.90
38726;DHT22;24474;48.906;8.808;2024-01-30T09:00:38;2.70;99.90
38726;DHT22;24474;48.906;8.808;2024-01-30T09:03:04;2.70;99.90
38726;DHT22;24474;48.906;8.808;2024-01-30T09:05:31;2.80;99.90
38726;DHT22;24474;48.906;8.808;2024-01-30T09:07:57;2.80;99.90
38726;DHT22;24474;48.906;8.808;2024-01-30T09:10:23;2.90;99.90
38726;DHT22;24474;48.906;8.808;2024-01-30T09:12:48;2.90;99.90
38726;DHT22;24474;48.906;8.808;2024-01-30T09:15:14;3.00;99.90
38726;DHT22;24474;48.906;8.808;2024-01-30T09:17:41;3.00;99.90
38726;DHT22;24474;48.906;8.808;2024-01-30T09:20:08;3.00;99.90
38726;DHT22;24474;48.906;8.808;2024-01-30T09:22:34;3.10;99.90
38726;DHT22;24474;48.906;8.808;2024-01-30T09:25:01;3.10;99.90
38726;DHT22;24474;48.906;8.808;2024-01-30T09:27:28;3.20;99.90
38726;DHT22;24474;48.906;8.808;2024-01-30T09:29:56;3.20;99.90
38726;DHT22;24474;48.906;8.808;2024-01-30T09:32:22;3.20;99.90
38726;DHT22;24474;48.906;8.808;2024-01-30T09:34:47;3.30;99.90
38726;DHT22;24474;48.906;8.808;2024-01-30T09:37:14;3.30;99.90
38726;DHT22;24474;48.906;8.808;2024-01-30T09:39:42;3.40;99.90
38726;DHT22;24474;48.906;8.808;2024-01-30T09:42:35;3.40;99.90
38726;DHT22;24474;48.906;8.808;2024-01-30T09:45:09;3.40;99.90
38726;DHT22;24474;48.906;8.808;2024-01-30T09:47:41;3.50;99.90
38726;DHT22;24474;48.906;8.808;2024-01-30T09:50:13;3.50;99.90
38726;DHT22;24474;48.906;8.808;2024-01-30T09:52:40;3.50;99.90
38726;DHT22;24474;48.906;8.808;2024-01-30T09:55:07;3.60;99.90
38726;DHT22;24474;48.906;8.808;2024-01-30T09:57:34;3.60;99.90
38726;DHT22;24474;48.906;8.808;2024-01-30T10:00:06;3.60;99.90
38726;DHT22;24474;48.906;8.808;2024-01-30T10:02:36;3.70;99.90
38726;DHT22;24474;48.906;8.808;2024-01-30T10:05:02;3.70;99.90
38726;DHT22;24474;48.906;8.808;2024-01-30T10:07:33;3.80;99.90
38726;DHT22;24474;48.906;8.808;2024-01-30T10:10:00;3.80;99.90
38726;DHT22;24474;48.906;8.808;2024-01-30T10:12:27;3.90;99.90
38726;DHT22;24474;48.906;8.808;2024-01-30T10:14:56;3.90;99.90
38726;DHT22;24474;48.906;8.808;2024-01-30T10:17:25;4.00;99.90
38726;DHT22;24474;48.906;8.808;2024-01-30T10:20:12;4.00;99.90
38726;DHT22;24474;48.906;8.808;2024-01-30T10:22:42;4.10;99.90
38726;DHT22;24474;48.906;8.808;2024-01-30T10:25:09;4.10;99.90
38726;DHT22;24474;48.906;8.808;2024-01-30T10:27:39;4.10;99.90
38726;DHT22;24474;48.906;8.808;2024-01-30T10:30:07;4.20;99.90
38726;DHT22;24474;48.906;8.808;2024-01-30T10:32:33;4.20;99.90
38726;DHT22;24474;48.906;8.808;2024-01-30T10:35:00;4.30;99.90
38726;DHT22;24474;48.906;8.808;2024-01-30T10:37:26;4.40;99.90
38726;DHT22;24474;48.906;8.808;2024-01-30T10:39:57;4.40;99.90
38726;DHT22;24474;48.906;8.808;2024-01-30T10:42:32;4.40;99.90
38726;DHT22;24474;48.906;8.808;2024-01-30T10:45:09;4.50;99.90
38726;DHT22;24474;48.906;8.808;2024-01-30T10:47:40;4.50;99.90
38726;DHT22;24474;48.906;8.808;2024-01-30T10:50:08;4.60;99.90
38726;DHT22;24474;48.906;8.808;2024-01-30T10:52:36;4.60;99.90
38726;DHT22;24474;48.906;8.808;2024-01-30T10:55:04;4.70;99.90
38726;DHT22;24474;48.906;8.808;2024-01-30T10:57:34;4.70;99.90
38726;DHT22;24474;48.906;8.808;2024-01-30T11:00:01;4.80;99.90
38726;DHT22;24474;48.906;8.808;2024-01-30T11:02:32;4.80;99.90
38726;DHT22;24474;48.906;8.808;2024-01-30T11:05:00;4.90;99.90
38726;DHT22;24474;48.906;8.808;2024-01-30T11:07:29;4.90;99.90
38726;DHT22;24474;48.906;8.808;2024-01-30T11:12:27;5.00;99.90
38726;DHT22;24474;48.906;8.808;2024-01-30T11:17:52;5.10;99.90
38726;DHT22;24474;48.906;8.808;2024-01-30T11:20:31;5.10;99.90
38726;DHT22;24474;48.906;8.808;2024-01-30T11:23:11;5.10;99.90
38726;DHT22;24474;48.906;8.808;2024-01-30T11:25:48;5.20;99.90
38726;DHT22;24474;48.906;8.808;2024-01-30T11:28:15;5.30;99.90
38726;DHT22;24474;48.906;8.808;2024-01-30T11:30:51;5.30;99.90
38726;DHT22;24474;48.906;8.808;2024-01-30T11:33:38;5.40;99.90
38726;DHT22;24474;48.906;8.808;2024-01-30T11:36:06;5.40;99.90
38726;DHT22;24474;48.906;8.808;2024-01-30T11:38:35;5.50;99.90
38726;DHT22;24474;48.906;8.808;2024-01-30T11:41:02;5.50;99.90
38726;DHT22;24474;48.906;8.808;2024-01-30T11:43:28;5.60;99.90
38726;DHT22;24474;48.906;8.808;2024-01-30T11:45:55;5.60;99.90
38726;DHT22;24474;48.906;8.808;2024-01-30T11:48:21;5.60;99.90
38726;DHT22;24474;48.906;8.808;2024-01-30T11:50:49;5.70;99.90
38726;DHT22;24474;48.906;8.808;2024-01-30T11:53:18;5.80;99.90
38726;DHT22;24474;48.906;8.808;2024-01-30T11:55:53;5.80;99.90
38726;DHT22;24474;48.906;8.808;2024-01-30T11:58:18;5.80;99.90
38726;DHT22;24474;48.906;8.808;2024-01-30T12:00:53;5.90;99.90
38726;DHT22;24474;48.906;8.808;2024-01-30T12:03:20;5.90;99.90
38726;DHT22;24474;48.906;8.808;2024-01-30T12:05:45;6.00;99.90
38726;DHT22;24474;48.906;8.808;2024-01-30T12:08:17;6.00;99.90
38726;DHT22;24474;48.906;8.808;2024-01-30T12:10:44;6.00;99.90
38726;DHT22;24474;48.906;8.808;2024-01-30T12:13:10;6.00;99.90
38726;DHT22;24474;48.906;8.808;2024-01-30T12:15:37;6.10;99.90
38726;DHT22;24474;48.906;8.808;2024-01-30T12:18:06;6.20;99.90
38726;DHT22;24474;48.906;8.808;2024-01-30T12:20:36;6.20;99.90
38726;DHT22;24474;48.906;8.808;2024-01-30T12:23:03;6.30;99.90
38726;DHT22;24474;48.906;8.808;2024-01-30T12:25:29;6.40;99.90
38726;DHT22;24474;48.906;8.808;2024-01-30T12:27:56;6.50;99.90
38726;DHT22;24474;48.906;8.808;2024-01-30T12:30:23;6.50;99.90
38726;DHT22;24474;48.906;8.808;2024-01-30T12:32:50;6.60;99.90
38726;DHT22;24474;48.906;8.808;2024-01-30T12:35:21;6.70;99.90
38726;DHT22;24474;48.906;8.808;2024-01-30T12:37:49;6.70;99.90
38726;DHT22;24474;48.906;8.808;2024-01-30T12:40:16;6.80;99.90
38726;DHT22;24474;48.906;8.808;2024-01-30T12:42:42;6.90;99.90
38726;DHT22;24474;48.906;8.808;2024-01-30T12:45:09;7.00;99.90
38726;DHT22;24474;48.906;8.808;2024-01-30T12:47:35;7.00;99.90
38726;DHT22;24474;48.906;8.808;2024-01-30T12:50:01;7.20;99.90
38726;DHT22;24474;48.906;8.808;2024-01-30T12:52:28;7.30;99.90
38726;DHT22;24474;48.906;8.808;2024-01-30T12:54:54;7.40;99.90
38726;DHT22;24474;48.906;8.808;2024-01-30T12:57:22;7.40;99.90
38726;DHT22;24474;48.906;8.808;2024-01-30T12:59:48;7.50;99.90
38726;DHT22;24474;48.906;8.808;2024-01-30T13:02:15;7.60;99.90
38726;DHT22;24474;48.906;8.808;2024-01-30T13:04:42;7.60;99.90
38726;DHT22;24474;48.906;8.808;2024-01-30T13:07:15;7.70;99.90
38726;DHT22;24474;48.906;8.808;2024-01-30T13:09:52;7.80;99.90
38726;DHT22;24474;48.906;8.808;2024-01-30T13:12:19;7.80;99.90
38726;DHT22;24474;48.906;8.808;2024-01-30T13:14:45;7.90;99.90
38726;DHT22;24474;48.906;8.808;2024-01-30T13:17:10;7.90;99.90
38726;DHT22;24474;48.906;8.808;2024-01-30T13:19:36;8.00;99.90
38726;DHT22;24474;48.906;8.808;2024-01-30T13:22:01;8.20;99.90
38726;DHT22;24474;48.906;8.808;2024-01-30T13:24:27;8.30;99.90
38726;DHT22;24474;48.906;8.808;2024-01-30T13:26:54;8.40;99.90
38726;DHT22;24474;48.906;8.808;2024-01-30T13:29:20;8.60;99.90
38726;DHT22;24474;48.906;8.808;2024-01-30T13:31:46;8.70;99.90
38726;DHT22;24474;48.906;8.808;2024-01-30T13:34:13;8.70;99.90
38726;DHT22;24474;48.906;8.808;2024-01-30T13:36:40;8.70;99.90
38726;DHT22;24474;48.906;8.808;2024-01-30T13:39:06;8.70;99.90
38726;DHT22;24474;48.906;8.808;2024-01-30T13:41:36;8.80;99.90
38726;DHT22;24474;48.906;8.808;2024-01-30T13:44:04;8.80;99.90
38726;DHT22;24474;48.906;8.808;2024-01-30T13:46:30;8.80;99.90
38726;DHT22;24474;48.906;8.808;2024-01-30T13:48:57;8.80;99.90
38726;DHT22;24474;48.906;8.808;2024-01-30T13:51:22;8.90;99.90
38726;DHT22;24474;48.906;8.808;2024-01-30T13:53:48;8.90;99.90
38726;DHT22;24474;48.906;8.808;2024-01-30T13:56:15;8.90;99.90
38726;DHT22;24474;48.906;8.808;2024-01-30T13:58:42;9.00;99.90
38726;DHT22;24474;48.906;8.808;2024-01-30T14:01:08;9.00;99.90
38726;DHT22;24474;48.906;8.808;2024-01-30T14:03:35;9.00;99.90
38726;DHT22;24474;48.906;8.808;2024-01-30T14:06:02;9.00;99.90
38726;DHT22;24474;48.906;8.808;2024-01-30T14:08:28;9.10;99.90
38726;DHT22;24474;48.906;8.808;2024-01-30T14:10:55;9.10;99.90
38726;DHT22;24474;48.906;8.808;2024-01-30T14:13:23;9.20;99.90
38726;DHT22;24474;48.906;8.808;2024-01-30T14:15:53;9.20;99.90
38726;DHT22;24474;48.906;8.808;2024-01-30T14:18:20;9.30;99.90
38726;DHT22;24474;48.906;8.808;2024-01-30T14:20:47;9.30;99.90
38726;DHT22;24474;48.906;8.808;2024-01-30T14:23:16;9.30;99.90
38726;DHT22;24474;48.906;8.808;2024-01-30T14:25:45;9.30;99.90
38726;DHT22;24474;48.906;8.808;2024-01-30T14:28:11;9.40;99.90
38726;DHT22;24474;48.906;8.808;2024-01-30T14:30:38;9.40;99.90
38726;DHT22;24474;48.906;8.808;2024-01-30T14:33:05;9.40;99.90
38726;DHT22;24474;48.906;8.808;2024-01-30T14:35:32;9.50;99.90
38726;DHT22;24474;48.906;8.808;2024-01-30T14:38:00;9.50;99.90
38726;DHT22;24474;48.906;8.808;2024-01-30T14:40:27;9.50;99.90
38726;DHT22;24474;48.906;8.808;2024-01-30T14:42:52;9.50;99.90
38726;DHT22;24474;48.906;8.808;2024-01-30T14:45:18;9.60;99.90
38726;DHT22;24474;48.906;8.808;2024-01-30T14:47:44;9.60;99.90
38726;DHT22;24474;48.906;8.808;2024-01-30T14:50:10;9.60;99.90
38726;DHT22;24474;48.906;8.808;2024-01-30T14:52:37;9.50;99.90
38726;DHT22;24474;48.906;8.808;2024-01-30T14:55:05;9.50;99.90
38726;DHT22;24474;48.906;8.808;2024-01-30T14:57:31;9.50;99.90
38726;DHT22;24474;48.906;8.808;2024-01-30T14:59:57;9.50;99.90
38726;DHT22;24474;48.906;8.808;2024-01-30T15:02:23;9.50;99.90
38726;DHT22;24474;48.906;8.808;2024-01-30T15:04:50;9.50;99.90
38726;DHT22;24474;48.906;8.808;2024-01-30T15:07:16;9.50;99.90
38726;DHT22;24474;48.906;8.808;2024-01-30T15:09:42;9.50;99.90
38726;DHT22;24474;48.906;8.808;2024-01-30T15:12:07;9.40;99.90
38726;DHT22;24474;48.906;8.808;2024-01-30T15:14:33;9.50;99.90
38726;DHT22;24474;48.906;8.808;2024-01-30T15:17:00;9.40;99.90
38726;DHT22;24474;48.906;8.808;2024-01-30T15:19:27;9.40;99.90
38726;DHT22;24474;48.906;8.808;2024-01-30T15:21:53;9.40;99.90
38726;DHT22;24474;48.906;8.808;2024-01-30T15:24:22;9.40;99.90
38726;DHT22;24474;48.906;8.808;2024-01-30T15:26:50;9.40;99.90
38726;DHT22;24474;48.906;8.808;2024-01-30T15:29:16;9.40;99.90
38726;DHT22;24474;48.906;8.808;2024-01-30T15:31:42;9.40;99.90
38726;DHT22;24474;48.906;8.808;2024-01-30T15:34:08;9.40;99.90
38726;DHT22;24474;48.906;8.808;2024-01-30T15:36:33;9.30;99.90
38726;DHT22;24474;48.906;8.808;2024-01-30T15:38:59;9.30;99.90
38726;DHT22;24474;48.906;8.808;2024-01-30T15:41:25;9.40;99.90
38726;DHT22;24474;48.906;8.808;2024-01-30T15:43:50;9.30;99.90
38726;DHT22;24474;48.906;8.808;2024-01-30T15:46:16;9.30;99.90
38726;DHT22;24474;48.906;8.808;2024-01-30T15:48:44;9.30;99.90